X  Fermer Données météorologiques d'aviation de Metar        KSPW Spencer, IA
Température
-12°F Température
-18°F Point de rosée
73% Humidité



Vent
0 MPH
0 KM/H
0 M/S
0 KTS



Calme
N
Conditions actuelles

Clear Clair
Pression 1035 (hPa) - 30.57 (inHg)
Visibilité 10 (mile) - 16 (km)
Aéroport
Code de l'aéroport KSPW

Emplacement: Spencer, IA
Distance: 12 (mi)

Metar:
METAR KSPW 260453Z AUTO 00000KT 10SM CLR M24/M28 A3045 RMK AO2 SLP353 I1000 T12441278

Temps: 01-25-2022 10:53 pm CST